createdAt,value
2022-11-26T00:00:14.750Z,0.70
2022-11-26T00:02:42.077Z,-0.50
2022-11-26T00:05:13.500Z,0.60
2022-11-26T00:07:42.572Z,0.70
2022-11-26T00:10:20.059Z,0.70
2022-11-26T00:12:47.761Z,0.80
2022-11-26T00:15:34.668Z,0.90
2022-11-26T00:18:01.672Z,0.70
2022-11-26T00:20:31.421Z,0.70
2022-11-26T00:23:02.582Z,0.70
2022-11-26T00:25:59.462Z,0.70
2022-11-26T00:28:36.418Z,0.70
2022-11-26T00:31:06.379Z,0.70
2022-11-26T00:33:33.774Z,0.70
2022-11-26T00:36:14.070Z,-0.90
2022-11-26T00:38:41.265Z,0.70
2022-11-26T00:41:22.595Z,0.00
2022-11-26T00:43:49.912Z,0.70
2022-11-26T00:46:19.510Z,0.70
2022-11-26T00:48:46.666Z,0.70
2022-11-26T00:51:18.185Z,0.70
2022-11-26T00:53:46.545Z,0.70
2022-11-26T00:56:16.218Z,0.70
2022-11-26T00:58:43.233Z,0.70
2022-11-26T01:01:13.187Z,0.70
2022-11-26T01:03:42.952Z,0.60
2022-11-26T01:06:34.203Z,0.70
2022-11-26T01:09:02.005Z,0.70
2022-11-26T01:11:29.113Z,0.80
2022-11-26T01:13:56.551Z,-0.70
2022-11-26T01:16:29.547Z,0.60
2022-11-26T01:18:58.984Z,0.80
2022-11-26T01:21:28.794Z,0.80
2022-11-26T01:23:56.044Z,0.80
2022-11-26T01:26:27.655Z,1.10
2022-11-26T01:28:55.577Z,1.60
2022-11-26T01:31:25.656Z,0.90
2022-11-26T01:33:53.089Z,0.70
2022-11-26T01:36:40.744Z,0.70
2022-11-26T01:39:21.377Z,0.80
2022-11-26T01:42:28.156Z,0.70
2022-11-26T01:44:57.282Z,0.90
2022-11-26T01:47:28.581Z,-0.10
2022-11-26T01:50:35.336Z,0.70
2022-11-26T01:53:33.080Z,0.60
2022-11-26T01:56:05.453Z,0.60
2022-11-26T01:58:39.878Z,-0.60
2022-11-26T02:01:07.515Z,0.70
2022-11-26T02:03:43.160Z,0.60
2022-11-26T02:06:19.555Z,-0.10
2022-11-26T02:08:47.189Z,0.70
2022-11-26T02:11:19.333Z,-0.90
2022-11-26T02:13:51.986Z,0.00
2022-11-26T02:16:59.130Z,0.00
2022-11-26T02:20:05.982Z,0.10
2022-11-26T02:23:12.753Z,0.00
2022-11-26T02:26:19.530Z,-1.20
2022-11-26T02:29:26.343Z,-0.20
2022-11-26T02:32:14.128Z,-0.30
2022-11-26T02:35:04.713Z,1.20
2022-11-26T02:37:39.758Z,0.10
2022-11-26T02:40:09.119Z,0.10
2022-11-26T02:42:36.977Z,0.50
2022-11-26T02:45:26.648Z,-0.90
2022-11-26T02:47:55.953Z,0.90
2022-11-26T02:50:28.416Z,1.00
2022-11-26T02:52:58.377Z,-0.80
2022-11-26T02:55:31.666Z,-0.50
2022-11-26T02:57:59.210Z,1.60
2022-11-26T03:00:26.514Z,-0.40
2022-11-26T03:03:04.038Z,-1.00
2022-11-26T03:05:35.137Z,0.40
2022-11-26T03:08:04.830Z,1.10
2022-11-26T03:10:32.490Z,0.50
2022-11-26T03:12:59.936Z,-0.80
2022-11-26T03:15:30.031Z,0.20
2022-11-26T03:17:57.212Z,1.00
2022-11-26T03:20:24.522Z,0.20
2022-11-26T03:22:54.450Z,-0.60
2022-11-26T03:25:21.528Z,-1.00
2022-11-26T03:27:48.511Z,-1.20
2022-11-26T03:30:15.749Z,-0.90
2022-11-26T03:32:42.941Z,0.60
2022-11-26T03:35:12.852Z,0.50
2022-11-26T03:37:40.234Z,0.60
2022-11-26T03:40:11.026Z,1.20
2022-11-26T03:42:38.204Z,0.60
2022-11-26T03:45:06.336Z,-0.30
2022-11-26T03:47:36.422Z,0.60
2022-11-26T03:50:04.347Z,0.60
2022-11-26T03:52:31.445Z,1.40
2022-11-26T03:55:00.733Z,0.50
2022-11-26T03:57:27.810Z,0.70
2022-11-26T03:59:54.855Z,1.20
2022-11-26T04:02:24.796Z,0.70
2022-11-26T04:04:55.073Z,-0.30
2022-11-26T04:07:22.229Z,0.60
2022-11-26T04:09:49.387Z,0.60
2022-11-26T04:12:16.504Z,0.20
2022-11-26T04:14:43.582Z,-0.50
2022-11-26T04:17:10.816Z,-0.30
2022-11-26T04:19:38.021Z,-0.10
2022-11-26T04:22:05.086Z,-0.60
2022-11-26T04:24:32.231Z,0.50
2022-11-26T04:27:02.277Z,0.70
2022-11-26T04:29:29.483Z,-0.40
2022-11-26T04:31:56.678Z,1.10
2022-11-26T04:34:26.283Z,0.60
2022-11-26T04:36:53.342Z,-0.90
2022-11-26T04:39:20.505Z,-0.30
2022-11-26T04:44:31.414Z,-0.30
2022-11-26T04:47:01.560Z,0.20
2022-11-26T04:49:30.169Z,-0.20
2022-11-26T04:51:57.476Z,0.10
2022-11-26T04:54:24.630Z,0.50
2022-11-26T04:56:51.742Z,-0.70
2022-11-26T04:59:18.897Z,-0.70
2022-11-26T05:01:49.121Z,0.80
2022-11-26T05:04:17.571Z,0.80
2022-11-26T05:06:48.738Z,-0.70
2022-11-26T05:09:46.788Z,1.70
2022-11-26T05:12:32.852Z,1.80
2022-11-26T05:15:16.531Z,1.00
2022-11-26T05:17:47.709Z,0.50
2022-11-26T05:20:28.740Z,0.40
2022-11-26T05:23:07.536Z,0.80
2022-11-26T05:25:47.810Z,0.50
2022-11-26T05:28:18.269Z,0.60
2022-11-26T05:30:45.494Z,0.80
2022-11-26T05:33:39.399Z,1.20
2022-11-26T05:36:12.729Z,-0.40
2022-11-26T05:38:57.568Z,1.40
2022-11-26T05:41:36.726Z,0.20
2022-11-26T05:44:21.690Z,0.90
2022-11-26T05:47:20.628Z,1.00
2022-11-26T05:58:32.392Z,-0.20
2022-11-26T06:04:59.330Z,1.40
2022-11-26T06:07:32.704Z,1.80
2022-11-26T06:10:15.392Z,-0.40
2022-11-26T06:13:01.607Z,1.60
2022-11-26T06:15:33.004Z,0.30
2022-11-26T06:18:05.936Z,-0.30
2022-11-26T06:21:09.425Z,1.00
2022-11-26T06:23:42.403Z,1.30
2022-11-26T06:26:33.618Z,1.00
2022-11-26T06:29:05.128Z,-0.20
2022-11-26T06:31:36.298Z,2.20
2022-11-26T06:34:04.851Z,0.00
2022-11-26T06:36:42.312Z,0.80
2022-11-26T06:39:15.352Z,-0.60
2022-11-26T06:41:51.189Z,1.90
2022-11-26T06:44:20.446Z,0.90
2022-11-26T06:47:08.068Z,0.30
2022-11-26T06:49:35.150Z,0.20
2022-11-26T06:52:15.245Z,-0.30
2022-11-26T06:54:51.993Z,1.10
2022-11-26T06:57:21.756Z,-0.10
2022-11-26T06:59:49.008Z,1.90
2022-11-26T07:02:16.245Z,2.00
2022-11-26T07:04:45.861Z,0.80
2022-11-26T07:07:16.773Z,1.30
2022-11-26T07:09:55.662Z,0.00
2022-11-26T07:12:27.333Z,-0.30
2022-11-26T07:14:57.271Z,0.80
2022-11-26T07:17:30.910Z,0.30
2022-11-26T07:20:04.929Z,1.60
2022-11-26T07:28:13.330Z,0.00
2022-11-26T07:30:49.221Z,1.10
2022-11-26T07:39:25.764Z,1.10
2022-11-26T07:45:02.351Z,0.70
2022-11-26T07:50:53.006Z,1.00
2022-11-26T07:53:25.976Z,0.90
2022-11-26T07:56:11.252Z,1.30
2022-11-26T07:58:52.950Z,0.90
2022-11-26T08:01:33.731Z,2.20
2022-11-26T08:04:08.449Z,1.40
2022-11-26T08:06:58.873Z,0.70
2022-11-26T08:09:35.850Z,2.00
2022-11-26T08:12:16.055Z,1.20
2022-11-26T08:15:13.015Z,1.80
2022-11-26T08:17:50.617Z,0.60
2022-11-26T08:20:29.376Z,1.70
2022-11-26T08:23:05.656Z,1.50
2022-11-26T08:29:45.894Z,1.10
2022-11-26T08:32:33.169Z,1.90
2022-11-26T08:36:28.461Z,2.00
2022-11-26T08:39:00.320Z,2.00
2022-11-26T08:47:17.745Z,2.00
2022-11-26T08:49:44.805Z,0.70
2022-11-26T08:53:03.365Z,2.00
2022-11-26T09:03:03.447Z,2.80
2022-11-26T09:09:28.952Z,1.70
2022-11-26T09:22:00.753Z,1.40
2022-11-26T09:24:31.974Z,2.20
2022-11-26T09:30:05.719Z,2.00
2022-11-26T09:32:36.477Z,1.10
2022-11-26T09:35:13.836Z,3.50
2022-11-26T09:37:53.994Z,0.30
2022-11-26T09:41:10.856Z,2.00
2022-11-26T09:50:52.634Z,1.20
2022-11-26T09:53:43.844Z,1.90
2022-11-26T09:56:33.950Z,2.60
2022-11-26T09:59:51.517Z,2.20
2022-11-26T10:04:30.208Z,2.60
2022-11-26T10:09:39.306Z,2.50
2022-11-26T10:13:17.966Z,1.90
2022-11-26T10:22:00.336Z,2.50
2022-11-26T10:24:36.624Z,2.50
2022-11-26T10:27:27.115Z,3.20
2022-11-26T10:30:00.418Z,1.20
2022-11-26T10:32:40.333Z,1.90
2022-11-26T10:35:18.804Z,3.00
2022-11-26T10:37:49.455Z,1.10
2022-11-26T10:40:48.619Z,2.30
2022-11-26T10:43:30.742Z,2.90
2022-11-26T10:46:28.114Z,3.50
2022-11-26T10:49:18.249Z,1.70
2022-11-26T10:51:54.588Z,4.30
2022-11-26T10:57:39.269Z,3.30
2022-11-26T11:00:52.469Z,4.00
2022-11-26T11:04:08.500Z,3.20
2022-11-26T11:06:45.660Z,3.00
2022-11-26T11:15:13.133Z,2.30
2022-11-26T11:20:01.216Z,4.30
2022-11-26T11:22:56.440Z,3.20
2022-11-26T11:25:39.709Z,3.20
2022-11-26T11:34:49.283Z,2.90
2022-11-26T11:37:59.544Z,2.90
2022-11-26T11:40:30.611Z,4.20
2022-11-26T11:43:23.832Z,1.80
2022-11-26T11:46:41.472Z,2.90
2022-11-26T11:49:48.302Z,2.80
2022-11-26T11:52:55.084Z,2.80
2022-11-26T11:55:41.805Z,2.70
2022-11-26T11:58:28.547Z,2.80
2022-11-26T12:01:00.507Z,2.90
2022-11-26T12:04:00.812Z,2.90
2022-11-26T12:06:54.661Z,2.90
2022-11-26T12:09:32.579Z,2.80
2022-11-26T12:12:22.965Z,2.80
2022-11-26T12:15:15.352Z,2.90
2022-11-26T12:17:50.035Z,2.80
2022-11-26T12:20:28.370Z,2.70
2022-11-26T12:23:35.058Z,2.70
2022-11-26T12:26:07.304Z,2.70
2022-11-26T12:28:46.954Z,1.50
2022-11-26T12:31:44.264Z,2.70
2022-11-26T12:34:34.618Z,2.70
2022-11-26T12:37:05.499Z,2.70
2022-11-26T12:40:12.258Z,2.70
2022-11-26T12:43:19.053Z,2.70
2022-11-26T12:46:08.812Z,1.20
2022-11-26T12:49:00.647Z,2.60
2022-11-26T12:52:07.391Z,2.50
2022-11-26T12:54:41.044Z,2.50
2022-11-26T12:57:25.526Z,2.50
2022-11-26T12:59:58.891Z,2.50
2022-11-26T13:02:30.250Z,2.10
2022-11-26T13:04:58.997Z,2.50
2022-11-26T13:08:05.753Z,2.50
2022-11-26T13:11:12.550Z,2.50
2022-11-26T13:14:07.830Z,2.50
2022-11-26T13:16:58.141Z,2.50
2022-11-26T13:20:04.915Z,2.50
2022-11-26T13:23:11.657Z,2.50
2022-11-26T13:26:18.470Z,2.60
2022-11-26T13:29:15.889Z,2.60
2022-11-26T13:32:14.449Z,2.60
2022-11-26T13:35:16.573Z,2.60
2022-11-26T13:38:23.300Z,2.60
2022-11-26T13:41:10.037Z,2.60
2022-11-26T13:43:56.733Z,2.50
2022-11-26T13:46:35.131Z,2.50
2022-11-26T13:49:26.906Z,2.50
2022-11-26T13:52:17.263Z,2.50
2022-11-26T13:54:57.343Z,2.50
2022-11-26T13:57:31.480Z,2.50
2022-11-26T13:59:59.944Z,2.50
2022-11-26T14:02:47.582Z,2.50
2022-11-26T14:05:16.723Z,2.50
2022-11-26T14:07:46.441Z,2.50
2022-11-26T14:10:53.198Z,2.50
2022-11-26T14:13:22.406Z,2.40
2022-11-26T14:15:55.717Z,0.90
2022-11-26T14:19:03.129Z,2.40
2022-11-26T14:21:30.741Z,1.80
2022-11-26T14:24:01.118Z,1.50
2022-11-26T14:26:31.439Z,2.40
2022-11-26T14:29:17.696Z,2.40
2022-11-26T14:32:08.938Z,2.40
2022-11-26T14:34:43.429Z,1.40
2022-11-26T14:37:16.410Z,1.20
2022-11-26T14:39:43.738Z,2.40
2022-11-26T14:42:17.626Z,2.40
2022-11-26T14:44:44.970Z,2.30
2022-11-26T14:47:20.007Z,2.30
2022-11-26T14:49:54.454Z,2.20
2022-11-26T14:52:26.529Z,2.20
2022-11-26T14:54:56.597Z,2.10
2022-11-26T14:57:30.045Z,2.00
2022-11-26T15:00:36.795Z,2.00
2022-11-26T15:03:04.400Z,2.00
2022-11-26T15:05:34.181Z,1.90
2022-11-26T15:08:14.251Z,1.90
2022-11-26T15:11:07.238Z,1.20
2022-11-26T15:13:44.542Z,2.00
2022-11-26T15:16:34.031Z,1.90
2022-11-26T15:19:02.874Z,1.90
2022-11-26T15:21:30.046Z,1.90
2022-11-26T15:24:00.565Z,1.90
2022-11-26T15:26:33.300Z,1.80
2022-11-26T15:29:00.694Z,1.80
2022-11-26T15:31:43.722Z,1.70
2022-11-26T15:34:13.565Z,1.40
2022-11-26T15:36:40.691Z,1.60
2022-11-26T15:39:22.680Z,1.60
2022-11-26T15:41:50.339Z,1.50
2022-11-26T15:44:25.165Z,1.40
2022-11-26T15:46:55.030Z,1.40
2022-11-26T15:49:27.418Z,1.30
2022-11-26T15:52:00.229Z,1.20
2022-11-26T15:54:49.665Z,1.20
2022-11-26T15:57:26.929Z,-0.30
2022-11-26T15:59:57.682Z,1.20
2022-11-26T16:02:27.836Z,1.20
2022-11-26T16:04:58.039Z,1.20
2022-11-26T16:07:27.830Z,1.20
2022-11-26T16:10:35.791Z,1.20
2022-11-26T16:13:20.666Z,1.10
2022-11-26T16:15:51.512Z,1.10
2022-11-26T16:18:22.753Z,1.10
2022-11-26T16:20:50.020Z,1.10
2022-11-26T16:23:28.352Z,1.10
2022-11-26T16:26:17.697Z,1.20
2022-11-26T16:28:46.413Z,1.30
2022-11-26T16:31:14.879Z,1.40
2022-11-26T16:33:42.569Z,1.50
2022-11-26T16:36:19.072Z,1.50
2022-11-26T16:38:46.331Z,1.60
2022-11-26T16:41:14.493Z,1.60
2022-11-26T16:43:41.771Z,1.60
2022-11-26T16:46:20.237Z,1.60
2022-11-26T16:48:48.169Z,0.40
2022-11-26T16:51:15.692Z,1.60
2022-11-26T16:53:43.430Z,1.60
2022-11-26T16:56:22.321Z,1.60
2022-11-26T16:58:50.185Z,1.60
2022-11-26T17:01:17.303Z,1.70
2022-11-26T17:03:44.689Z,1.60
2022-11-26T17:06:15.875Z,0.60
2022-11-26T17:08:49.194Z,1.60
2022-11-26T17:11:17.210Z,1.60
2022-11-26T17:13:44.346Z,1.60
2022-11-26T17:16:15.048Z,1.70
2022-11-26T17:18:42.645Z,1.70
2022-11-26T17:21:10.005Z,1.80
2022-11-26T17:23:37.385Z,1.80
2022-11-26T17:26:15.842Z,1.80
2022-11-26T17:28:42.956Z,1.80
2022-11-26T17:31:10.106Z,1.70
2022-11-26T17:33:37.246Z,1.80
2022-11-26T17:36:10.151Z,1.90
2022-11-26T17:38:37.912Z,1.90
2022-11-26T17:41:06.523Z,1.90
2022-11-26T17:43:33.562Z,2.00
2022-11-26T17:46:02.360Z,2.00
2022-11-26T17:48:29.530Z,2.00
2022-11-26T17:50:56.599Z,2.00
2022-11-26T17:53:23.746Z,2.10
2022-11-26T17:55:50.820Z,2.00
2022-11-26T17:58:17.884Z,2.00
2022-11-26T18:00:44.927Z,2.00
2022-11-26T18:03:12.036Z,2.10
2022-11-26T18:05:42.013Z,2.00
2022-11-26T18:08:09.598Z,2.00
2022-11-26T18:10:40.690Z,2.10
2022-11-26T18:13:07.905Z,1.80
2022-11-26T18:15:34.872Z,2.10
2022-11-26T18:18:01.895Z,2.10
2022-11-26T18:20:29.347Z,2.10
2022-11-26T18:22:59.608Z,2.00
2022-11-26T18:25:27.635Z,2.00
2022-11-26T18:27:55.201Z,2.10
2022-11-26T18:30:22.358Z,2.10
2022-11-26T18:32:49.521Z,2.00
2022-11-26T18:35:17.303Z,2.00
2022-11-26T18:37:44.759Z,2.00
2022-11-26T18:40:14.676Z,2.00
2022-11-26T18:42:41.860Z,2.00
2022-11-26T18:45:11.887Z,1.90
2022-11-26T18:47:39.164Z,2.00
2022-11-26T18:50:07.338Z,2.10
2022-11-26T18:52:34.534Z,2.00
2022-11-26T18:55:04.868Z,2.00
2022-11-26T18:57:32.243Z,2.00
2022-11-26T18:59:59.249Z,1.90
2022-11-26T19:02:26.494Z,1.90
2022-11-26T19:04:53.766Z,1.90
2022-11-26T19:07:20.953Z,2.00
2022-11-26T19:09:49.349Z,2.00
2022-11-26T19:12:16.436Z,1.30
2022-11-26T19:14:43.560Z,1.90
2022-11-26T19:17:10.712Z,1.90
2022-11-26T19:19:38.487Z,1.90
2022-11-26T19:22:05.722Z,1.80
2022-11-26T19:24:32.840Z,1.70
2022-11-26T19:26:59.848Z,1.60
2022-11-26T19:29:26.960Z,1.50
2022-11-26T19:31:54.054Z,1.50
2022-11-26T19:34:21.210Z,1.50
2022-11-26T19:36:48.624Z,1.50
2022-11-26T19:39:16.749Z,1.40
2022-11-26T19:41:44.285Z,1.50
2022-11-26T19:44:11.354Z,1.40
2022-11-26T19:46:41.251Z,1.40
2022-11-26T19:49:11.161Z,1.40
2022-11-26T19:51:38.308Z,1.40
2022-11-26T19:54:05.455Z,1.40
2022-11-26T19:56:33.336Z,1.50
2022-11-26T19:59:02.239Z,1.60
2022-11-26T20:01:31.617Z,1.60
2022-11-26T20:04:02.069Z,1.70
2022-11-26T20:06:30.603Z,1.80
2022-11-26T20:08:59.366Z,1.80
2022-11-26T20:11:27.510Z,1.80
2022-11-26T20:13:54.805Z,1.90
2022-11-26T20:16:25.074Z,1.90
2022-11-26T20:18:52.965Z,1.90
2022-11-26T20:21:23.429Z,1.90
2022-11-26T20:23:51.282Z,1.90
2022-11-26T20:26:22.065Z,1.40
2022-11-26T20:28:49.854Z,1.80
2022-11-26T20:31:23.140Z,2.00
2022-11-26T20:33:52.956Z,2.00
2022-11-26T20:36:22.953Z,2.10
2022-11-26T20:38:54.746Z,2.10
2022-11-26T20:41:22.831Z,2.10
2022-11-26T20:43:56.510Z,2.10
2022-11-26T20:46:25.564Z,2.10
2022-11-26T20:48:53.093Z,2.10
2022-11-26T20:51:22.016Z,2.10
2022-11-26T20:53:50.738Z,2.10
2022-11-26T20:56:19.869Z,2.20
2022-11-26T20:58:47.347Z,2.20
2022-11-26T21:01:39.119Z,1.10
2022-11-26T21:04:07.006Z,2.20
2022-11-26T21:06:34.939Z,2.20
2022-11-26T21:09:04.651Z,2.20
2022-11-26T21:11:31.795Z,2.30
2022-11-26T21:14:00.138Z,2.20
2022-11-26T21:16:58.853Z,2.20
2022-11-26T21:19:26.143Z,2.20
2022-11-26T21:21:53.178Z,2.20
2022-11-26T21:24:20.591Z,2.20
2022-11-26T21:26:47.605Z,2.20
2022-11-26T21:29:14.816Z,2.30
2022-11-26T21:31:41.985Z,0.90
2022-11-26T21:34:10.976Z,2.30
2022-11-26T21:36:38.164Z,2.30
2022-11-26T21:39:05.798Z,2.30
2022-11-26T21:41:33.828Z,2.20
2022-11-26T21:44:03.953Z,2.20
2022-11-26T21:46:37.602Z,2.30
2022-11-26T21:49:06.085Z,2.30
2022-11-26T21:51:33.114Z,1.50
2022-11-26T21:54:00.188Z,0.80
2022-11-26T21:56:29.180Z,2.30
2022-11-26T21:58:57.571Z,2.30
2022-11-26T22:01:45.913Z,2.30
2022-11-26T22:04:17.700Z,2.30
2022-11-26T22:06:46.307Z,1.70
2022-11-26T22:09:14.832Z,2.30
2022-11-26T22:11:43.933Z,1.30
2022-11-26T22:14:14.619Z,2.20
2022-11-26T22:16:42.163Z,2.20
2022-11-26T22:19:09.817Z,2.10
2022-11-26T22:21:39.892Z,2.20
2022-11-26T22:24:10.143Z,1.30
2022-11-26T22:26:37.321Z,2.20
2022-11-26T22:29:04.924Z,2.10
2022-11-26T22:31:35.042Z,1.80
2022-11-26T22:34:06.245Z,2.20
2022-11-26T22:36:33.980Z,2.30
2022-11-26T22:39:03.076Z,2.20
2022-11-26T22:41:30.261Z,2.20
2022-11-26T22:44:00.328Z,2.20
2022-11-26T22:46:27.869Z,2.20
2022-11-26T22:49:00.198Z,2.20
2022-11-26T22:51:29.552Z,2.20
2022-11-26T22:54:00.855Z,2.20
2022-11-26T22:56:28.994Z,2.20
2022-11-26T22:58:56.609Z,2.20
2022-11-26T23:01:43.596Z,2.30
2022-11-26T23:04:11.265Z,2.20
2022-11-26T23:06:39.055Z,2.20
2022-11-26T23:09:07.910Z,2.20
2022-11-26T23:11:38.104Z,2.20
2022-11-26T23:14:07.594Z,2.20
2022-11-26T23:16:36.482Z,0.90
2022-11-26T23:19:04.247Z,2.20
2022-11-26T23:21:34.775Z,2.20
2022-11-26T23:24:02.046Z,2.20
2022-11-26T23:26:31.911Z,2.30
2022-11-26T23:29:01.025Z,2.20
2022-11-26T23:31:30.482Z,2.30
2022-11-26T23:33:57.943Z,2.20
2022-11-26T23:36:26.458Z,2.20
2022-11-26T23:38:53.765Z,2.20
2022-11-26T23:41:20.941Z,2.10
2022-11-26T23:43:48.310Z,2.10
2022-11-26T23:46:21.117Z,2.20
2022-11-26T23:48:48.965Z,2.10
2022-11-26T23:51:21.948Z,1.30
2022-11-26T23:53:50.628Z,2.10
2022-11-26T23:56:24.110Z,2.10
2022-11-26T23:58:52.808Z,2.10
